Météo Nord-Pas-de-Calais   La météo au plus près de chez vous

Observations météo à Nice (06088)

Dimanche 3 Mai 2026


Température maximale

19.4°C

à 11:30

06h 06h UTC

Température minimale

14.7°C

à 07:18

18h 18h UTC

Rafale maximale

23 km/h

à 02:06

00h 00h UTC

Précipitations

0 mm

06h 06h UTC

Ensoleillement

5h 18 mins

00h 00h UTC

  Relevés météo

Afficher les données infra-horaire (6 mins)

Température
Point de rosée
Humidité
Vent
Précipitations
Température à 10 cm
Température à 20 cm
Température à 50 cm
Visibilité
Hauteur neige
Ensoleillement
Rayonnement global
Pression
Heure Température
°C
Point de rosée
°C
Humidité
%
Vent
moyen (raf.), km/h
Précipitations
mm
Température à 10 cm
°C
Température à 20 cm
°C
Température à 50 cm
°C
Visibilité
m
Hauteur neige
cm
Ensoleillement
min
Rayonnement global
J/m²
Pression
hPa
21:12 17 °C 13.1 °C 78 %8 km/h (13 km/h) 0 mm0 mm 19.2 °C 18.1 °C 18.7 °C 60000 m 0 cm 0 min 0 J/m² 1018.5 hPa
21:06 17 °C 13.1 °C 78 %8 km/h (13 km/h) 0 mm0 mm 19.2 °C 18.1 °C 18.7 °C 60000 m 0 cm 0 min 0 J/m² 1018.4 hPa
21:00 17 °C 13.1 °C 78 %8 km/h (12 km/h) 0 mm0 mm 19.2 °C 18.1 °C 18.8 °C 25860 m 0 cm 0 min 0 J/m² 1018.4 hPa
20:54 17 °C 12.9 °C 77 %8 km/h (11 km/h) 0 mm0 mm 19.2 °C 18.1 °C 18.8 °C 25860 m 0 cm 0 min 0 J/m² 1018.3 hPa
20:48 17.1 °C 12.8 °C 76 %8 km/h (12 km/h) 0 mm0 mm 19.2 °C 18.1 °C 18.7 °C 60000 m 0 cm 0 min 0 J/m² 1018.3 hPa
20:42 17.1 °C 12.8 °C 76 %8 km/h (12 km/h) 0 mm0 mm 19.2 °C 18.1 °C 18.7 °C 57930 m 0 cm 0 min 0 J/m² 1018.4 hPa
20:36 17.1 °C 12.6 °C 75 %8 km/h (10 km/h) 0 mm0 mm 19.2 °C 18.1 °C 18.7 °C 57930 m 0 cm 0 min 0 J/m² 1018.4 hPa
20:30 17.2 °C 12.7 °C 75 %7 km/h (11 km/h) 0 mm0 mm 19.2 °C 18.1 °C 18.7 °C 60000 m 0 cm 0 min 0 J/m² 1018.3 hPa
20:24 17.2 °C 12.7 °C 75 %8 km/h (11 km/h) 0 mm0 mm 19.2 °C 18.1 °C 18.7 °C 60000 m 0 cm 0 min 0 J/m² 1018.5 hPa
20:18 17.2 °C 12.5 °C 74 %8 km/h (11 km/h) 0 mm0 mm 19.2 °C 18.1 °C 18.7 °C 60000 m 0 cm 0 min 0 J/m² 1018.4 hPa
20:12 17.3 °C 12.6 °C 74 %9 km/h (12 km/h) 0 mm0 mm 19.2 °C 18.2 °C 18.7 °C 60000 m 0 cm 0 min 1200 J/m² 1018.3 hPa
20:06 17.3 °C 12.4 °C 73 %9 km/h (13 km/h) 0 mm0 mm 19.2 °C 18.1 °C 18.7 °C 60000 m 0 cm 0 min 8400 J/m² 1018.2 hPa
20:00 17.3 °C 12.4 °C 73 %10 km/h (15 km/h) 0 mm0 mm 19.2 °C 18.1 °C 18.7 °C 60000 m 0 cm 0 min 10500 J/m² 1018.2 hPa
19:54 17.4 °C 12.3 °C 72 %11 km/h (15 km/h) 0 mm0 mm 19.2 °C 18.1 °C 18.7 °C 60000 m 0 cm 0 min 12600 J/m² 1018.3 hPa
19:48 17.4 °C 12.1 °C 71 %12 km/h (16 km/h) 0 mm0 mm 19.2 °C 18.1 °C 18.7 °C 60000 m 0 cm 0 min 14600 J/m² 1018.3 hPa
19:42 17.5 °C 12.4 °C 72 %12 km/h (16 km/h) 0 mm0 mm 19.2 °C 18.1 °C 18.7 °C 60000 m 0 cm 0 min 16600 J/m² 1018.3 hPa
19:36 17.6 °C 12.5 °C 72 %12 km/h (17 km/h) 0 mm0 mm 19.1 °C 18.1 °C 18.7 °C 60000 m 0 cm 0 min 19600 J/m² 1018.3 hPa
19:30 17.6 °C 12.7 °C 73 %13 km/h (17 km/h) 0 mm0 mm 19.1 °C 18.1 °C 18.7 °C 60000 m 0 cm 0 min 23500 J/m² 1018.2 hPa
19:24 17.6 °C 12.5 °C 72 %12 km/h (15 km/h) 0 mm0 mm 19.1 °C 18.2 °C 18.7 °C 60000 m 0 cm 0 min 27600 J/m² 1018.3 hPa
19:18 17.6 °C 12.5 °C 72 %10 km/h (13 km/h) 0 mm0 mm 19.1 °C 18.1 °C 18.7 °C 60000 m 0 cm 0 min 30600 J/m² 1018.3 hPa
19:12 17.6 °C 12.5 °C 72 %9 km/h (14 km/h) 0 mm0 mm 19.1 °C 18.1 °C 18.6 °C 60000 m 0 cm 0 min 31900 J/m² 1018.3 hPa
19:06 17.7 °C 12.6 °C 72 %9 km/h (14 km/h) 0 mm0 mm 19.1 °C 18.2 °C 18.7 °C 60000 m 0 cm 0 min 32400 J/m² 1018.4 hPa
19:00 17.8 °C 12.5 °C 71 %10 km/h (14 km/h) 0 mm0 mm 19.1 °C 18.1 °C 18.6 °C 58850 m 0 cm 0 min 31800 J/m² 1018.3 hPa
18:54 17.7 °C 12.2 °C 70 %9 km/h (14 km/h) 0 mm0 mm 19.1 °C 18.1 °C 18.6 °C 57610 m 0 cm 0 min 32700 J/m² 1018.4 hPa
18:48 17.6 °C 12.1 °C 70 %8 km/h (15 km/h) 0 mm0 mm 19.1 °C 18.1 °C 18.6 °C 58720 m 0 cm 0 min 37500 J/m² 1018.4 hPa
18:42 17.7 °C 12.2 °C 70 %9 km/h (15 km/h) 0 mm0 mm 19.1 °C 18.1 °C 18.6 °C 60000 m 0 cm 0 min 41800 J/m² 1018.5 hPa
18:36 17.8 °C 12.5 °C 71 %9 km/h (13 km/h) 0 mm0 mm 19 °C 18.1 °C 18.6 °C 60000 m 0 cm 0 min 43800 J/m² 1018.5 hPa
18:30 17.7 °C 12.6 °C 72 %10 km/h (14 km/h) 0 mm0 mm 19.1 °C 18.1 °C 18.6 °C 60000 m 0 cm 0 min 46000 J/m² 1018.5 hPa
18:24 17.7 °C 12.6 °C 72 %9 km/h (13 km/h) 0 mm0 mm 19 °C 18.1 °C 18.6 °C 60000 m 0 cm 0 min 52900 J/m² 1018.5 hPa
18:18 17.9 °C 12.8 °C 72 %8 km/h (11 km/h) 0 mm0 mm 19 °C 18.1 °C 18.6 °C 60000 m 0 cm 0 min 60800 J/m² 1018.5 hPa
18:12 17.9 °C 12.6 °C 71 %8 km/h (12 km/h) 0 mm0 mm 19 °C 18.1 °C 18.6 °C 60000 m 0 cm 0 min 66300 J/m² 1018.5 hPa
18:06 17.9 °C 12.6 °C 71 %8 km/h (11 km/h) 0 mm0 mm 19 °C 18.2 °C 18.6 °C 60000 m 0 cm 0 min 69100 J/m² 1018.6 hPa
18:00 17.9 °C 12.6 °C 71 %9 km/h (14 km/h) 0 mm0 mm 19 °C 18.1 °C 18.6 °C 60000 m 0 cm 0 min 70100 J/m² 1018.6 hPa
17:54 17.9 °C 12.8 °C 72 %11 km/h (14 km/h) 0 mm0 mm 19 °C 18.1 °C 18.6 °C 60000 m 0 cm 0 min 68600 J/m² 1018.6 hPa
17:48 17.8 °C 12.5 °C 71 %11 km/h (14 km/h) 0 mm0 mm 19 °C 18.2 °C 18.6 °C 60000 m 0 cm 0 min 69200 J/m² 1018.7 hPa
17:42 17.8 °C 12.5 °C 71 %10 km/h (14 km/h) 0 mm0 mm 19 °C 18.2 °C 18.6 °C 60000 m 0 cm 0 min 75000 J/m² 1018.8 hPa
17:36 18 °C 12.2 °C 69 %11 km/h (15 km/h) 0 mm0 mm 18.9 °C 18.2 °C 18.6 °C 60000 m 0 cm 0 min 84600 J/m² 1018.8 hPa
17:30 18.1 °C 12.1 °C 68 %12 km/h (18 km/h) 0 mm0 mm 18.9 °C 18.1 °C 18.6 °C 60000 m 0 cm 0 min 95600 J/m² 1018.7 hPa
17:24 18.2 °C 12.6 °C 70 %13 km/h (18 km/h) 0 mm0 mm 18.9 °C 18.1 °C 18.6 °C 60000 m 0 cm 0 min 89800 J/m² 1018.7 hPa
17:18 18.1 °C 12.8 °C 71 %13 km/h (18 km/h) 0 mm0 mm 18.9 °C 18.1 °C 18.6 °C 60000 m 0 cm 0 min 93100 J/m² 1018.7 hPa
17:12 18 °C 12.2 °C 69 %13 km/h (18 km/h) 0 mm0 mm 18.9 °C 18.1 °C 18.6 °C 60000 m 0 cm 0 min 91400 J/m² 1018.7 hPa
17:06 17.9 °C 12.6 °C 71 %13 km/h (17 km/h) 0 mm0 mm 18.9 °C 18.1 °C 18.6 °C 60000 m 0 cm 0 min 84500 J/m² 1018.8 hPa
17:00 18.1 °C 12.8 °C 71 %13 km/h (17 km/h) 0 mm0 mm 18.9 °C 18.1 °C 18.6 °C 60000 m 0 cm 0 min 87900 J/m² 1018.9 hPa
16:54 18.2 °C 12.9 °C 71 %13 km/h (17 km/h) 0 mm0 mm 18.9 °C 18.1 °C 18.5 °C 60000 m 0 cm 0 min 100100 J/m² 1018.9 hPa
16:48 18.3 °C 12.5 °C 69 %14 km/h (17 km/h) 0 mm0 mm 18.9 °C 18.1 °C 18.5 °C 60000 m 0 cm 0 min 102200 J/m² 1018.8 hPa
16:42 18.2 °C 12.4 °C 69 %15 km/h (18 km/h) 0 mm0 mm 18.9 °C 18.1 °C 18.5 °C 60000 m 0 cm 0 min 115500 J/m² 1018.7 hPa
16:36 18.4 °C 12.2 °C 67 %13 km/h (18 km/h) 0 mm0 mm 18.8 °C 18.1 °C 18.5 °C 60000 m 0 cm 6 min 191800 J/m² 1018.7 hPa
16:30 18.9 °C 12.6 °C 67 %12 km/h (16 km/h) 0 mm0 mm 18.8 °C 18.1 °C 18.5 °C 60000 m 0 cm 5 min 193500 J/m² 1018.8 hPa
16:24 18.7 °C 12.2 °C 66 %12 km/h (15 km/h) 0 mm0 mm 18.8 °C 18.1 °C 18.5 °C 60000 m 0 cm 0 min 145300 J/m² 1018.9 hPa
16:18 18.8 °C 12.3 °C 66 %11 km/h (14 km/h) 0 mm0 mm 18.8 °C 18.1 °C 18.5 °C 60000 m 0 cm 6 min 206600 J/m² 1019.1 hPa
16:12 18.3 °C 12.1 °C 67 %10 km/h (14 km/h) 0 mm0 mm 18.8 °C 18.2 °C 18.5 °C 60000 m 0 cm 2 min 160200 J/m² 1019.2 hPa
16:06 18.3 °C 12.1 °C 67 %10 km/h (14 km/h) 0 mm0 mm 18.8 °C 18.1 °C 18.5 °C 60000 m 0 cm 0 min 124200 J/m² 1019.2 hPa
16:00 18.4 °C 12.2 °C 67 %10 km/h (14 km/h) 0 mm0 mm 18.8 °C 18.1 °C 18.5 °C 60000 m 0 cm 0 min 120500 J/m² 1019.4 hPa
15:54 18.7 °C 12.4 °C 67 %9 km/h (16 km/h) 0 mm0 mm 18.8 °C 18.2 °C 18.5 °C 60000 m 0 cm 3 min 178500 J/m² 1019.4 hPa
15:48 18.7 °C 11.3 °C 62 %10 km/h (15 km/h) 0 mm0 mm 18.7 °C 18.1 °C 18.5 °C 60000 m 0 cm 6 min 217900 J/m² 1019.5 hPa
15:42 18.7 °C 12.2 °C 66 %12 km/h (15 km/h) 0 mm0 mm 18.7 °C 18.2 °C 18.5 °C 60000 m 0 cm 4 min 206000 J/m² 1019.4 hPa
15:36 18.7 °C 12 °C 65 %11 km/h (15 km/h) 0 mm0 mm 18.7 °C 18.2 °C 18.5 °C 60000 m 0 cm 5 min 225900 J/m² 1019.4 hPa
15:30 18.7 °C 12.2 °C 66 %11 km/h (15 km/h) 0 mm0 mm 18.7 °C 18.1 °C 18.5 °C 60000 m 0 cm 5 min 227900 J/m² 1019.7 hPa
15:24 19 °C 12 °C 64 %11 km/h (15 km/h) 0 mm0 mm 18.7 °C 18.1 °C 18.5 °C 60000 m 0 cm 3 min 208300 J/m² 1019.8 hPa
15:18 18.9 °C 11.5 °C 62 %11 km/h (14 km/h) 0 mm0 mm 18.7 °C 18.1 °C 18.5 °C 60000 m 0 cm 6 min 245400 J/m² 1019.7 hPa
15:12 19.1 °C 12.1 °C 64 %11 km/h (14 km/h) 0 mm0 mm 18.7 °C 18.2 °C 18.5 °C 60000 m 0 cm 6 min 260000 J/m² 1019.8 hPa
15:06 18.7 °C 11.7 °C 64 %10 km/h (16 km/h) 0 mm0 mm 18.7 °C 18.1 °C 18.5 °C 60000 m 0 cm 5 min 234100 J/m² 1019.8 hPa
15:00 18.6 °C 11.4 °C 63 %9 km/h (16 km/h) 0 mm0 mm 18.6 °C 18.2 °C 18.5 °C 60000 m 0 cm 0 min 192100 J/m² 1019.9 hPa
14:54 18.9 °C 11.5 °C 62 %9 km/h (12 km/h) 0 mm0 mm 18.7 °C 18.2 °C 18.5 °C 60000 m 0 cm 0 min 183600 J/m² 1020.1 hPa
14:48 18.7 °C 12 °C 65 %9 km/h (13 km/h) 0 mm0 mm 18.6 °C 18.2 °C 18.5 °C 60000 m 0 cm 0 min 173600 J/m² 1020.2 hPa
14:42 18.5 °C 11.3 °C 63 %11 km/h (14 km/h) 0 mm0 mm 18.6 °C 18.2 °C 18.5 °C 60000 m 0 cm 0 min 158600 J/m² 1020.3 hPa
14:36 18.5 °C 11.6 °C 64 %11 km/h (14 km/h) 0 mm0 mm 18.6 °C 18.2 °C 18.5 °C 60000 m 0 cm 0 min 158400 J/m² 1020.2 hPa
14:30 18.5 °C 12 °C 66 %12 km/h (15 km/h) 0 mm0 mm 18.6 °C 18.1 °C 18.5 °C 60000 m 0 cm 0 min 166700 J/m² 1020.3 hPa
14:24 18.8 °C 11.8 °C 64 %12 km/h (15 km/h) 0 mm0 mm 18.6 °C 18.2 °C 18.5 °C 60000 m 0 cm 0 min 177400 J/m² 1020.3 hPa
14:18 18.7 °C 11.5 °C 63 %12 km/h (15 km/h) 0 mm0 mm 18.6 °C 18.1 °C 18.5 °C 60000 m 0 cm 0 min 176300 J/m² 1020.3 hPa
14:12 19 °C 12 °C 64 %12 km/h (16 km/h) 0 mm0 mm 18.6 °C 18.2 °C 18.5 °C 60000 m 0 cm 4 min 236400 J/m² 1020.3 hPa
14:06 18.6 °C 11.9 °C 65 %13 km/h (17 km/h) 0 mm0 mm 18.5 °C 18.2 °C 18.5 °C 60000 m 0 cm 1 min 219100 J/m² 1020.3 hPa
14:00 18.6 °C 11.7 °C 64 %13 km/h (16 km/h) 0 mm0 mm 18.6 °C 18.2 °C 18.5 °C 60000 m 0 cm 0 min 196000 J/m² 1020.4 hPa
13:54 18.2 °C 11.3 °C 64 %12 km/h (17 km/h) 0 mm0 mm 18.5 °C 18.1 °C 18.5 °C 60000 m 0 cm 0 min 135900 J/m² 1020.5 hPa
13:48 18.3 °C 12.1 °C 67 %13 km/h (17 km/h) 0 mm0 mm 18.5 °C 18.2 °C 18.5 °C 60000 m 0 cm 0 min 108500 J/m² 1020.5 hPa
13:42 18.2 °C 11.5 °C 65 %14 km/h (18 km/h) 0 mm0 mm 18.5 °C 18.2 °C 18.5 °C 60000 m 0 cm 0 min 94300 J/m² 1020.4 hPa
13:36 18.3 °C 11.6 °C 65 %14 km/h (18 km/h) 0 mm0 mm 18.5 °C 18.2 °C 18.5 °C 60000 m 0 cm 0 min 86300 J/m² 1020.4 hPa
13:30 18.5 °C 12 °C 66 %15 km/h (19 km/h) 0 mm0 mm 18.5 °C 18.2 °C 18.5 °C 60000 m 0 cm 0 min 99300 J/m² 1020.4 hPa
13:24 18.6 °C 12.1 °C 66 %17 km/h (22 km/h) 0 mm0 mm 18.5 °C 18.2 °C 18.5 °C 60000 m 0 cm 0 min 122500 J/m² 1020.3 hPa
13:18 19.2 °C 11.2 °C 60 %18 km/h (22 km/h) 0 mm0 mm 18.5 °C 18.2 °C 18.5 °C 60000 m 0 cm 1 min 206400 J/m² 1020.3 hPa
13:12 19.3 °C 12.6 °C 65 %19 km/h (22 km/h) 0 mm0 mm 18.4 °C 18.2 °C 18.5 °C 60000 m 0 cm 5 min 263900 J/m² 1020.2 hPa
13:06 19.2 °C 12.2 °C 64 %19 km/h (23 km/h) 0 mm0 mm 18.4 °C 18.2 °C 18.5 °C 45160 m 0 cm 6 min 273800 J/m² 1020.2 hPa
13:00 19 °C 12.3 °C 65 %19 km/h (23 km/h) 0 mm0 mm 18.4 °C 18.2 °C 18.5 °C 40990 m 0 cm 6 min 249100 J/m² 1020.2 hPa
12:54 19 °C 12.5 °C 66 %18 km/h (22 km/h) 0 mm0 mm 18.4 °C 18.2 °C 18.5 °C 52870 m 0 cm 2 min 233000 J/m² 1020.3 hPa
12:48 19 °C 12.5 °C 66 %19 km/h (22 km/h) 0 mm0 mm 18.4 °C 18.1 °C 18.5 °C 60000 m 0 cm 6 min 307700 J/m² 1020.4 hPa
12:42 19.1 °C 12.4 °C 65 %19 km/h (22 km/h) 0 mm0 mm 18.4 °C 18.2 °C 18.5 °C 60000 m 0 cm 6 min 267500 J/m² 1020.5 hPa
12:36 18.9 °C 12.2 °C 65 %19 km/h (22 km/h) 0 mm0 mm 18.4 °C 18.2 °C 18.5 °C 57910 m 0 cm 6 min 255800 J/m² 1020.5 hPa
12:30 19 °C 11.8 °C 63 %18 km/h (22 km/h) 0 mm0 mm 18.4 °C 18.2 °C 18.5 °C 57910 m 0 cm 6 min 277300 J/m² 1020.5 hPa
12:24 19.2 °C 12.5 °C 65 %17 km/h (21 km/h) 0 mm0 mm 18.4 °C 18.2 °C 18.5 °C 60000 m 0 cm 6 min 291400 J/m² 1020.6 hPa
12:18 18.9 °C 12.2 °C 65 %17 km/h (20 km/h) 0 mm0 mm 18.4 °C 18.2 °C 18.5 °C 60000 m 0 cm 4 min 259900 J/m² 1020.7 hPa
12:12 18.9 °C 12.2 °C 65 %17 km/h (19 km/h) 0 mm0 mm 18.4 °C 18.2 °C 18.5 °C 60000 m 0 cm 5 min 271900 J/m² 1020.8 hPa
12:06 19.2 °C 12 °C 63 %16 km/h (19 km/h) 0 mm0 mm 18.4 °C 18.2 °C 18.5 °C 60000 m 0 cm 4 min 271200 J/m² 1020.8 hPa
12:00 19 °C 11.8 °C 63 %16 km/h (19 km/h) 0 mm0 mm 18.4 °C 18.2 °C 18.5 °C 60000 m 0 cm 5 min 276900 J/m² 1020.8 hPa
11:54 18.8 °C 11.6 °C 63 %16 km/h (19 km/h) 0 mm0 mm 18.4 °C 18.2 °C 18.5 °C 60000 m 0 cm 6 min 296600 J/m² 1020.8 hPa
11:48 18.6 °C 12.1 °C 66 %17 km/h (19 km/h) 0 mm0 mm 18.4 °C 18.2 °C 18.5 °C 60000 m 0 cm 1 min 186000 J/m² 1020.9 hPa
11:42 18.6 °C 11.4 °C 63 %16 km/h (19 km/h) 0 mm0 mm 18.4 °C 18.2 °C 18.5 °C 60000 m 0 cm 1 min 191900 J/m² 1020.9 hPa
11:36 19 °C 11.8 °C 63 %15 km/h (19 km/h) 0 mm0 mm 18.4 °C 18.2 °C 18.6 °C 60000 m 0 cm 6 min 281400 J/m² 1021 hPa
11:30 19.4 °C 12.2 °C 63 %16 km/h (19 km/h) 0 mm0 mm 18.4 °C 18.2 °C 18.6 °C 60000 m 0 cm 6 min 329000 J/m² 1021 hPa
11:24 18.9 °C 11.5 °C 62 %15 km/h (18 km/h) 0 mm0 mm 18.4 °C 18.2 °C 18.5 °C 60000 m 0 cm 6 min 319500 J/m² 1020.9 hPa
11:18 18.4 °C 11.2 °C 63 %14 km/h (18 km/h) 0 mm0 mm 18.4 °C 18.2 °C 18.6 °C 60000 m 0 cm 3 min 221800 J/m² 1020.9 hPa
11:12 18.6 °C 11.2 °C 62 %14 km/h (17 km/h) 0 mm0 mm 18.4 °C 18.2 °C 18.6 °C 60000 m 0 cm 2 min 182700 J/m² 1021 hPa
11:06 18.4 °C 10.7 °C 61 %14 km/h (16 km/h) 0 mm0 mm 18.4 °C 18.2 °C 18.6 °C 60000 m 0 cm 0 min 140400 J/m² 1021 hPa
11:00 18.8 °C 11.1 °C 61 %13 km/h (16 km/h) 0 mm0 mm 18.4 °C 18.2 °C 18.6 °C 60000 m 0 cm 5 min 267000 J/m² 1021.1 hPa
10:54 18.7 °C 11 °C 61 %12 km/h (15 km/h) 0 mm0 mm 18.4 °C 18.1 °C 18.6 °C 60000 m 0 cm 6 min 279600 J/m² 1020.9 hPa
10:48 18.8 °C 10.9 °C 60 %12 km/h (15 km/h) 0 mm0 mm 18.4 °C 18.2 °C 18.6 °C 60000 m 0 cm 6 min 263100 J/m² 1020.9 hPa
10:42 18.7 °C 10.8 °C 60 %13 km/h (16 km/h) 0 mm0 mm 18.4 °C 18.2 °C 18.6 °C 60000 m 0 cm 5 min 237200 J/m² 1020.8 hPa
10:36 18.8 °C 10.6 °C 59 %13 km/h (17 km/h) 0 mm0 mm 18.4 °C 18.1 °C 18.6 °C 60000 m 0 cm 6 min 263400 J/m² 1020.7 hPa
10:30 18.7 °C 10.3 °C 58 %13 km/h (17 km/h) 0 mm0 mm 18.4 °C 18.2 °C 18.6 °C 60000 m 0 cm 6 min 259100 J/m² 1020.7 hPa
10:24 18.5 °C 10.1 °C 58 %12 km/h (15 km/h) 0 mm0 mm 18.4 °C 18.2 °C 18.6 °C 60000 m 0 cm 6 min 241300 J/m² 1020.7 hPa
10:18 18.8 °C 10.6 °C 59 %11 km/h (14 km/h) 0 mm0 mm 18.4 °C 18.2 °C 18.6 °C 60000 m 0 cm 6 min 236600 J/m² 1020.7 hPa
10:12 18.8 °C 10.4 °C 58 %11 km/h (14 km/h) 0 mm0 mm 18.5 °C 18.2 °C 18.6 °C 18830 m 0 cm 6 min 250300 J/m² 1020.7 hPa
10:06 18.5 °C 10.6 °C 60 %12 km/h (14 km/h) 0 mm0 mm 18.5 °C 18.2 °C 18.6 °C 18830 m 0 cm 6 min 239000 J/m² 1020.7 hPa
10:00 18.2 °C 10.3 °C 60 %12 km/h (14 km/h) 0 mm0 mm 18.4 °C 18.2 °C 18.6 °C 60000 m 0 cm 4 min 182600 J/m² 1020.7 hPa
09:54 18 °C 9.9 °C 59 %12 km/h (15 km/h) 0 mm0 mm 18.5 °C 18.2 °C 18.6 °C 60000 m 0 cm 0 min 113300 J/m² 1020.6 hPa
09:48 18.6 °C 10.4 °C 59 %12 km/h (15 km/h) 0 mm0 mm 18.5 °C 18.1 °C 18.6 °C 60000 m 0 cm 6 min 219000 J/m² 1020.6 hPa
09:42 18.6 °C 10.7 °C 60 %10 km/h (15 km/h) 0 mm0 mm 18.5 °C 18.1 °C 18.6 °C 60000 m 0 cm 6 min 214300 J/m² 1020.6 hPa
09:36 18.2 °C 10.3 °C 60 %7 km/h (11 km/h) 0 mm0 mm 18.5 °C 18.2 °C 18.6 °C 60000 m 0 cm 6 min 166900 J/m² 1020.5 hPa
09:30 18.1 °C 10 °C 59 %8 km/h (12 km/h) 0 mm0 mm 18.5 °C 18.2 °C 18.6 °C 60000 m 0 cm 6 min 158300 J/m² 1020.5 hPa
09:24 18.2 °C 9.3 °C 56 %8 km/h (13 km/h) 0 mm0 mm 18.5 °C 18.2 °C 18.6 °C 53870 m 0 cm 6 min 163200 J/m² 1020.5 hPa
09:18 17.9 °C 9.5 °C 58 %9 km/h (13 km/h) 0 mm0 mm 18.5 °C 18.2 °C 18.7 °C 53870 m 0 cm 6 min 149500 J/m² 1020.4 hPa
09:12 18 °C 9.1 °C 56 %8 km/h (13 km/h) 0 mm0 mm 18.5 °C 18.2 °C 18.7 °C 60000 m 0 cm 6 min 133400 J/m² 1020.4 hPa
09:06 17.8 °C 8.4 °C 54 %7 km/h (13 km/h) 0 mm0 mm 18.6 °C 18.2 °C 18.7 °C 60000 m 0 cm 6 min 119400 J/m² 1020.4 hPa
09:00 17.2 °C 6.7 °C 50 %7 km/h (11 km/h) 0 mm0 mm 18.5 °C 18.2 °C 18.7 °C 60000 m 0 cm 4 min 106800 J/m² 1020.4 hPa
08:54 16.9 °C 6.1 °C 49 %8 km/h (12 km/h) 0 mm0 mm 18.6 °C 18.2 °C 18.7 °C 60000 m 0 cm 6 min 111200 J/m² 1020.3 hPa
08:48 16.7 °C 5.9 °C 49 %8 km/h (12 km/h) 0 mm0 mm 18.6 °C 18.2 °C 18.7 °C 60000 m 0 cm 6 min 114900 J/m² 1020.3 hPa
08:42 16.6 °C 5.8 °C 49 %9 km/h (12 km/h) 0 mm0 mm 18.6 °C 18.2 °C 18.7 °C 60000 m 0 cm 6 min 104400 J/m² 1020.3 hPa
08:36 16.4 °C 5.6 °C 49 %8 km/h (12 km/h) 0 mm0 mm 18.6 °C 18.2 °C 18.7 °C 19550 m 0 cm 6 min 95400 J/m² 1020.3 hPa
08:30 16.2 °C 5.8 °C 50 %6 km/h (12 km/h) 0 mm0 mm 18.6 °C 18.1 °C 18.7 °C 19550 m 0 cm 6 min 88300 J/m² 1020.3 hPa
08:24 16 °C 5.6 °C 50 %6 km/h (12 km/h) 0 mm0 mm 18.6 °C 18.2 °C 18.7 °C 60000 m 0 cm 4 min 76400 J/m² 1020.2 hPa
08:18 15.8 °C 5.7 °C 51 %8 km/h (13 km/h) 0 mm0 mm 18.6 °C 18.1 °C 18.7 °C 60000 m 0 cm 0 min 63700 J/m² 1020.1 hPa
08:12 15.5 °C 5.7 °C 52 %7 km/h (13 km/h) 0 mm0 mm 18.6 °C 18.2 °C 18.7 °C 60000 m 0 cm 4 min 62400 J/m² 1020.1 hPa
08:06 15.4 °C 5.6 °C 52 %7 km/h (11 km/h) 0 mm0 mm 18.6 °C 18.2 °C 18.7 °C 60000 m 0 cm 0 min 43000 J/m² 1020.1 hPa
08:00 15.3 °C 5.2 °C 51 %9 km/h (12 km/h) 0 mm0 mm 18.6 °C 18.2 °C 18.7 °C 60000 m 0 cm 0 min 36500 J/m² 1020.1 hPa
07:54 15.1 °C 5 °C 51 %9 km/h (13 km/h) 0 mm0 mm 18.6 °C 18.2 °C 18.7 °C 60000 m 0 cm 0 min 31700 J/m² 1020.1 hPa
07:48 15 °C 4.9 °C 51 %9 km/h (13 km/h) 0 mm0 mm 18.6 °C 18.2 °C 18.7 °C 60000 m 0 cm 0 min 26600 J/m² 1020.1 hPa
07:42 15 °C 4.9 °C 51 %11 km/h (18 km/h) 0 mm0 mm 18.7 °C 18.2 °C 18.8 °C 60000 m 0 cm 0 min 22100 J/m² 1020.1 hPa
07:36 14.9 °C 4.8 °C 51 %12 km/h (18 km/h) 0 mm0 mm 18.7 °C 18.1 °C 18.7 °C 60000 m 0 cm 0 min 18400 J/m² 1020.1 hPa
07:30 14.7 °C 4.9 °C 52 %12 km/h (16 km/h) 0 mm0 mm 18.7 °C 18.2 °C 18.8 °C 60000 m 0 cm 0 min 15500 J/m² 1020.1 hPa
07:24 14.7 °C 5.2 °C 53 %13 km/h (16 km/h) 0 mm0 mm 18.7 °C 18.2 °C 18.8 °C 60000 m 0 cm 0 min 13000 J/m² 1020 hPa
07:18 14.7 °C 4.9 °C 52 %12 km/h (15 km/h) 0 mm0 mm 18.7 °C 18.1 °C 18.8 °C 60000 m 0 cm 0 min 10300 J/m² 1019.9 hPa
07:12 14.8 °C 4.8 °C 51 %10 km/h (15 km/h) 0 mm0 mm 18.7 °C 18.2 °C 18.8 °C 60000 m 0 cm 0 min 5400 J/m² 1020 hPa
07:06 15 °C 4.7 °C 50 %9 km/h (12 km/h) 0 mm0 mm 18.7 °C 18.1 °C 18.8 °C 60000 m 0 cm 0 min 0 J/m² 1020.1 hPa
07:00 15.2 °C 4.5 °C 49 %8 km/h (13 km/h) 0 mm0 mm 18.7 °C 18.2 °C 18.8 °C 60000 m 0 cm 0 min 0 J/m² 1020.1 hPa
06:54 15.3 °C 4.3 °C 48 %8 km/h (13 km/h) 0 mm0 mm 18.7 °C 18.1 °C 18.8 °C 60000 m 0 cm 0 min 0 J/m² 1020 hPa
06:48 15.2 °C 4.3 °C 48 %10 km/h (15 km/h) 0 mm0 mm 18.7 °C 18.1 °C 18.8 °C 60000 m 0 cm 0 min 0 J/m² 1020.1 hPa
06:42 15.2 °C 4.3 °C 48 %10 km/h (15 km/h) 0 mm0 mm 18.8 °C 18.2 °C 18.8 °C 60000 m 0 cm 0 min 0 J/m² 1020 hPa
06:36 15.1 °C 4.5 °C 49 %10 km/h (15 km/h) 0 mm0 mm 18.7 °C 18.1 °C 18.8 °C 60000 m 0 cm 0 min 0 J/m² 1020.1 hPa
06:30 15.1 °C 4.5 °C 49 %12 km/h (16 km/h) 0 mm0 mm 18.8 °C 18.2 °C 18.8 °C 60000 m 0 cm 0 min 0 J/m² 1020.1 hPa
06:24 14.8 °C 4.8 °C 51 %13 km/h (17 km/h) 0 mm0 mm 18.8 °C 18.2 °C 18.8 °C 60000 m 0 cm 0 min 0 J/m² 1020.2 hPa
06:18 14.8 °C 4.8 °C 51 %12 km/h (17 km/h) 0 mm0 mm 18.8 °C 18.1 °C 18.8 °C 60000 m 0 cm 0 min 0 J/m² 1020.3 hPa
06:12 14.8 °C 4.8 °C 51 %12 km/h (16 km/h) 0 mm0 mm 18.8 °C 18.2 °C 18.8 °C 60000 m 0 cm 0 min 0 J/m² 1020.2 hPa
06:06 14.8 °C 4.5 °C 50 %12 km/h (16 km/h) 0 mm0 mm 18.8 °C 18.1 °C 18.8 °C 60000 m 0 cm 0 min 0 J/m² 1020.2 hPa
06:00 15.1 °C 4.5 °C 49 %9 km/h (16 km/h) 0 mm0 mm 18.8 °C 18.2 °C 18.8 °C 60000 m 0 cm 0 min 0 J/m² 1020.2 hPa
05:54 15.1 °C 4.5 °C 49 %6 km/h (10 km/h) 0 mm0 mm 18.8 °C 18.1 °C 18.8 °C 60000 m 0 cm 0 min 0 J/m² 1020.1 hPa
05:48 15.2 °C 4.3 °C 48 %8 km/h (12 km/h) 0 mm0 mm 18.8 °C 18.1 °C 18.8 °C 60000 m 0 cm 0 min 0 J/m² 1020 hPa
05:42 15.2 °C 4.5 °C 49 %10 km/h (12 km/h) 0 mm0 mm 18.8 °C 18.1 °C 18.8 °C 60000 m 0 cm 0 min 0 J/m² 1019.9 hPa
05:36 15.1 °C 4.5 °C 49 %10 km/h (14 km/h) 0 mm0 mm 18.9 °C 18.2 °C 18.9 °C 60000 m 0 cm 0 min 0 J/m² 1020.1 hPa
05:30 15.1 °C 4.5 °C 49 %10 km/h (14 km/h) 0 mm0 mm 18.9 °C 18.1 °C 18.8 °C 60000 m 0 cm 0 min 0 J/m² 1020.1 hPa
05:24 15.2 °C 4.3 °C 48 %11 km/h (15 km/h) 0 mm0 mm 18.9 °C 18.1 °C 18.8 °C 60000 m 0 cm 0 min 0 J/m² 1020.1 hPa
05:18 15.3 °C 4.3 °C 48 %10 km/h (15 km/h) 0 mm0 mm 18.9 °C 18.1 °C 18.8 °C 60000 m 0 cm 0 min 0 J/m² 1020 hPa
05:12 15.4 °C 4.4 °C 48 %9 km/h (10 km/h) 0 mm0 mm 18.9 °C 18.1 °C 18.9 °C 60000 m 0 cm 0 min 0 J/m² 1020.1 hPa
05:06 15.5 °C 4.5 °C 48 %9 km/h (11 km/h) 0 mm0 mm 18.9 °C 18.1 °C 18.8 °C 60000 m 0 cm 0 min 0 J/m² 1020.1 hPa
05:00 15.4 °C 4.1 °C 47 %9 km/h (14 km/h) 0 mm0 mm 18.9 °C 18.1 °C 18.9 °C 60000 m 0 cm 0 min 0 J/m² 1020.2 hPa
04:54 15.1 °C 4.7 °C 50 %12 km/h (17 km/h) 0 mm0 mm 18.9 °C 18.1 °C 18.9 °C 60000 m 0 cm 0 min 0 J/m² 1020.2 hPa
04:48 15.3 °C 4.6 °C 49 %11 km/h (17 km/h) 0 mm0 mm 18.9 °C 18.1 °C 18.8 °C 60000 m 0 cm 0 min 0 J/m² 1020.3 hPa
04:42 15.6 °C 4.3 °C 47 %10 km/h (14 km/h) 0 mm0 mm 18.9 °C 18.1 °C 18.9 °C 60000 m 0 cm 0 min 0 J/m² 1020.3 hPa
04:36 15.9 °C 4.3 °C 46 %9 km/h (13 km/h) 0 mm0 mm 19 °C 18.1 °C 18.9 °C 60000 m 0 cm 0 min 0 J/m² 1020.4 hPa
04:30 15.7 °C 4.1 °C 46 %10 km/h (13 km/h) 0 mm0 mm 19 °C 18.1 °C 18.9 °C 60000 m 0 cm 0 min 0 J/m² 1020.3 hPa
04:24 15.5 °C 4.5 °C 48 %12 km/h (15 km/h) 0 mm0 mm 19 °C 18.1 °C 18.9 °C 60000 m 0 cm 0 min 0 J/m² 1020.3 hPa
04:18 15.3 °C 4.3 °C 48 %12 km/h (16 km/h) 0 mm0 mm 19 °C 18.1 °C 18.9 °C 60000 m 0 cm 0 min 0 J/m² 1020.3 hPa
04:12 15.2 °C 4.5 °C 49 %11 km/h (16 km/h) 0 mm0 mm 19 °C 18.1 °C 18.9 °C 60000 m 0 cm 0 min 0 J/m² 1020.3 hPa
04:06 15.3 °C 4.3 °C 48 %11 km/h (15 km/h) 0 mm0 mm 19 °C 18.1 °C 18.9 °C 60000 m 0 cm 0 min 0 J/m² 1020.3 hPa
04:00 15.5 °C 4.2 °C 47 %11 km/h (15 km/h) 0 mm0 mm 19 °C 18.1 °C 18.9 °C 60000 m 0 cm 0 min 0 J/m² 1020.4 hPa
03:54 15.5 °C 4.2 °C 47 %11 km/h (16 km/h) 0 mm0 mm 19 °C 18.1 °C 18.9 °C 60000 m 0 cm 0 min 0 J/m² 1020.3 hPa
03:48 15.8 °C 4.2 °C 46 %13 km/h (18 km/h) 0 mm0 mm 19 °C 18.1 °C 18.9 °C 60000 m 0 cm 0 min 0 J/m² 1020.3 hPa
03:42 15.9 °C 4 °C 45 %14 km/h (21 km/h) 0 mm0 mm 19 °C 18.1 °C 18.9 °C 60000 m 0 cm 0 min 0 J/m² 1020.3 hPa
03:36 15.9 °C 4.3 °C 46 %12 km/h (21 km/h) 0 mm0 mm 19.1 °C 18.1 °C 18.9 °C 60000 m 0 cm 0 min 0 J/m² 1020.4 hPa
03:30 15.5 °C 5.4 °C 51 %12 km/h (21 km/h) 0 mm0 mm 19.1 °C 18.1 °C 18.9 °C 60000 m 0 cm 0 min 0 J/m² 1020.4 hPa
03:24 15 °C 5.2 °C 52 %11 km/h (17 km/h) 0 mm0 mm 19.1 °C 18.1 °C 18.9 °C 60000 m 0 cm 0 min 0 J/m² 1020.5 hPa
03:18 15.1 °C 6.9 °C 58 %11 km/h (20 km/h) 0 mm0 mm 19.1 °C 18.1 °C 18.9 °C 60000 m 0 cm 0 min 0 J/m² 1020.6 hPa
03:12 15.1 °C 5.3 °C 52 %13 km/h (21 km/h) 0 mm0 mm 19.1 °C 18.1 °C 18.9 °C 60000 m 0 cm 0 min 0 J/m² 1020.6 hPa
03:06 14.9 °C 5.9 °C 55 %12 km/h (21 km/h) 0 mm0 mm 19.1 °C 18.1 °C 18.9 °C 60000 m 0 cm 0 min 0 J/m² 1020.6 hPa
03:00 15 °C 5.2 °C 52 %11 km/h (18 km/h) 0 mm0 mm 19.1 °C 18.1 °C 18.9 °C 60000 m 0 cm 0 min 0 J/m² 1020.6 hPa
02:54 15.2 °C 4.8 °C 50 %12 km/h (15 km/h) 0 mm0 mm 19.1 °C 18.1 °C 18.9 °C 60000 m 0 cm 0 min 0 J/m² 1020.7 hPa
02:48 15.3 °C 4.9 °C 50 %10 km/h (15 km/h) 0 mm0 mm 19.1 °C 18.1 °C 18.9 °C 60000 m 0 cm 0 min 0 J/m² 1020.7 hPa
02:42 15.3 °C 4.9 °C 50 %9 km/h (12 km/h) 0 mm0 mm 19.1 °C 18.1 °C 18.9 °C 60000 m 0 cm 0 min 0 J/m² 1020.8 hPa
02:36 15.3 °C 4.9 °C 50 %10 km/h (14 km/h) 0 mm0 mm 19.2 °C 18.1 °C 18.9 °C 60000 m 0 cm 0 min 0 J/m² 1020.8 hPa
02:30 15.3 °C 4.9 °C 50 %11 km/h (15 km/h) 0 mm0 mm 19.2 °C 18.1 °C 18.9 °C 60000 m 0 cm 0 min 0 J/m² 1020.9 hPa
02:24 15.5 °C 5.1 °C 50 %12 km/h (16 km/h) 0 mm0 mm 19.2 °C 18.1 °C 18.9 °C 60000 m 0 cm 0 min 0 J/m² 1020.9 hPa
02:18 15.5 °C 4.8 °C 49 %13 km/h (19 km/h) 0 mm0 mm 19.2 °C 18.1 °C 18.9 °C 60000 m 0 cm 0 min 0 J/m² 1021 hPa
02:12 15.5 °C 5.1 °C 50 %15 km/h (22 km/h) 0 mm0 mm 19.2 °C 18.1 °C 18.9 °C 60000 m 0 cm 0 min 0 J/m² 1021 hPa
02:06 15.5 °C 5.1 °C 50 %17 km/h (23 km/h) 0 mm0 mm 19.2 °C 18.1 °C 18.9 °C 60000 m 0 cm 0 min 0 J/m² 1021 hPa
02:00 15.5 °C 5.1 °C 50 %17 km/h (22 km/h) 0 mm0 mm 19.2 °C 18.1 °C 18.9 °C 60000 m 0 cm 0 min 0 J/m² 1021.1 hPa
01:54 15.4 °C 5.3 °C 51 %13 km/h (21 km/h) 0 mm0 mm 19.2 °C 18.1 °C 18.9 °C 60000 m 0 cm 0 min 0 J/m² 1021.1 hPa
01:48 15.5 °C 5.4 °C 51 %13 km/h (22 km/h) 0 mm0 mm 19.3 °C 18.1 °C 18.9 °C 60000 m 0 cm 0 min 0 J/m² 1021.1 hPa
01:42 15.4 °C 5.3 °C 51 %15 km/h (22 km/h) 0 mm0 mm 19.3 °C 18.1 °C 18.9 °C 60000 m 0 cm 0 min 0 J/m² 1021.1 hPa
01:36 15.3 °C 5.5 °C 52 %13 km/h (19 km/h) 0 mm0 mm 19.2 °C 18.1 °C 18.9 °C 60000 m 0 cm 0 min 0 J/m² 1021.2 hPa
01:30 15.2 °C 5.7 °C 53 %13 km/h (19 km/h) 0 mm0 mm 19.3 °C 18.1 °C 19 °C 60000 m 0 cm 0 min 0 J/m² 1021.3 hPa
01:24 15.2 °C 5.7 °C 53 %14 km/h (19 km/h) 0 mm0 mm 19.3 °C 18.1 °C 18.9 °C 60000 m 0 cm 0 min 0 J/m² 1021.3 hPa
01:18 15.3 °C 5.8 °C 53 %12 km/h (19 km/h) 0 mm0 mm 19.3 °C 18.1 °C 18.9 °C 60000 m 0 cm 0 min 0 J/m² 1021.3 hPa
01:12 15.3 °C 5.8 °C 53 %11 km/h (16 km/h) 0 mm0 mm 19.3 °C 18.1 °C 18.9 °C 60000 m 0 cm 0 min 0 J/m² 1021.4 hPa
01:06 15.4 °C 5.9 °C 53 %10 km/h (14 km/h) 0 mm0 mm 19.3 °C 18.1 °C 18.9 °C 60000 m 0 cm 0 min 0 J/m² 1021.4 hPa
01:00 15.5 °C 5.7 °C 52 %12 km/h (17 km/h) 0 mm0 mm 19.3 °C 18.1 °C 18.9 °C 60000 m 0 cm 0 min 0 J/m² 1021.4 hPa
00:54 15.5 °C 6 °C 53 %13 km/h (17 km/h) 0 mm0 mm 19.3 °C 18.1 °C 18.9 °C 60000 m 0 cm 0 min 0 J/m² 1021.5 hPa
00:48 15.4 °C 5.9 °C 53 %13 km/h (17 km/h) 0 mm0 mm 19.3 °C 18.1 °C 18.9 °C 60000 m 0 cm 0 min 0 J/m² 1021.5 hPa
00:42 15.4 °C 5.9 °C 53 %12 km/h (17 km/h) 0 mm0 mm 19.3 °C 18.1 °C 18.9 °C 60000 m 0 cm 0 min 0 J/m² 1021.5 hPa
00:36 15.4 °C 5.9 °C 53 %13 km/h (18 km/h) 0 mm0 mm 19.3 °C 18.1 °C 18.9 °C 60000 m 0 cm 0 min 0 J/m² 1021.6 hPa
00:30 15.4 °C 6.1 °C 54 %15 km/h (20 km/h) 0 mm0 mm 19.3 °C 18.1 °C 18.9 °C 60000 m 0 cm 0 min 0 J/m² 1021.6 hPa
00:24 15.2 °C 6.2 °C 55 %14 km/h (20 km/h) 0 mm0 mm 19.4 °C 18.1 °C 18.9 °C 60000 m 0 cm 0 min 0 J/m² 1021.7 hPa
00:18 15.7 °C 6.1 °C 53 %12 km/h (16 km/h) 0 mm0 mm 19.4 °C 18.1 °C 18.9 °C 60000 m 0 cm 0 min 0 J/m² 1021.7 hPa
00:12 15.7 °C 5.9 °C 52 %12 km/h (16 km/h) 0 mm0 mm 19.4 °C 18.1 °C 18.9 °C 60000 m 0 cm 0 min 0 J/m² 1021.7 hPa
00:06 15.8 °C 6 °C 52 %12 km/h (15 km/h) 0 mm0 mm 19.4 °C 18.1 °C 18.9 °C 60000 m 0 cm 0 min 0 J/m² 1021.7 hPa
00:00 15.9 °C 5.8 °C 51 %12 km/h (14 km/h) 0 mm0 mm 19.4 °C 18.1 °C 18.9 °C 60000 m 0 cm 0 min 0 J/m² 1021.8 hPa

Données via Météo-France

   Vigilance

   Dernière mise à jour Dimanche à 16:00

Application mobile

iOS

Android / iOS / PC

   Fil d'actualités

  Il y a 1 heureVoir plus

> Prévisions pour le 04/05 : Ciel généralement couvert en matinée, avec tout de même quelques rares éclaircies. Rapidement vers la fin de matinée, des averses orageuses prendront naissance autour de l'Avesnois. Ces averses pourront se généraliser aux secteurs limitrophes dans l'après-midi (Cambrésis, Valenciennois, ... jusqu'à la métropolle Lilloise et l'Artois) en cours d'après-midi, mais sans certitude. Ces averses orageuses seront très peu mobiles et très localisées: quelques inondations localisées sont possibles sur les secteurs habitués dans ce genre de situation. Compte tenu de la difficulté de la prévision et du caractère très localisé de ces averses, on pourrait passer à côté... ou non. Baisse des températures au global sur la région, avec pas plus de 17°C pour les maximales ! En matinée, températures comprises entre 11°C et 12°C. Vent faible. Dans l'après-midi, températures comprises entre 12°C et 17°C. Vent faible. Pensez à regarder les cartes pour voir le temps prévu! Bonne soirée ! :) Hugo. ---- 👉 Retrouvez les prévisions pour votre ville sur https://meteo-npdc.fr/previsions/ma-ville/

  Il y a 3 heuresVoir plus

⚡️ Alors que nos averses orageuses quittent la région par la Belgique, d'autres se situent encore entre Cambrésis/Avesnois/Valenciennois... et d'autres arrivent encore par la Picardie ! Il y a encore de la réserve derrière, ce n'est donc pas encore totalement terminé. Fin prévue en soirée :) Hugo

  Il y a 5 heuresVoir plus

⚡️ L'essentiel de l'activité orageuse se situe entre Arras et Lille maintenant, où les pluies sont également les plus intenses. Ailleurs, pluies modérées et ponctuellment fortes... ou rien du tout ! 😁 Cet orage va remonter sur la métropole Lilloise avant de nous quitter vers la Belgique très bientôt :)

  Il y a 5 heuresVoir plus

Comme je vous le disais, pas grand chose à attendre cet après-midi: au moins nous avons un peu d'eau, pour le plus grand bien de nos jardins ! Il faudra attendre la soirée pour que ces averses ne cessent. En attendant, profitez-en pour faire la danse de la pluie 😁 Hugo

  Il y a 7 heuresVoir plus

⚡️ Retour des orages cet après-midi, notamment autour de Lillers. Beaucoup de réserve également arrivant sur la Somme, ce n'est donc que le début des festivités pour la journée ! Pas grand chose à attendre néanmoins en dehors de coups de tonnerre / fortes pluies. Le Boulonnais et le Calaisis devraient rester en marge cet après-midi, même si une averse n'est pas totalement à exclure ;) Hugo